createdAt,value
2019-02-10T00:01:11.850Z,13.08
2019-02-10T00:03:41.815Z,13.55
2019-02-10T00:06:10.238Z,11.45
2019-02-10T00:08:38.595Z,10.23
2019-02-10T00:11:06.996Z,10.78
2019-02-10T00:13:35.899Z,11.20
2019-02-10T00:16:14.266Z,14.70
2019-02-10T00:18:43.048Z,16.45
2019-02-10T00:21:11.479Z,10.38
2019-02-10T00:23:40.147Z,11.55
2019-02-10T00:26:08.532Z,11.18
2019-02-10T00:28:37.827Z,18.48
2019-02-10T00:31:06.178Z,8.25
2019-02-10T00:33:34.886Z,14.87
2019-02-10T00:36:03.239Z,11.88
2019-02-10T00:38:32.191Z,14.47
2019-02-10T00:41:00.542Z,9.95
2019-02-10T00:43:28.927Z,8.03
2019-02-10T00:45:57.491Z,15.20
2019-02-10T00:48:25.846Z,14.25
2019-02-10T00:50:54.164Z,18.62
2019-02-10T00:53:23.190Z,14.25
2019-02-10T00:55:51.926Z,12.82
2019-02-10T00:58:20.289Z,15.83
2019-02-10T01:00:48.695Z,11.20
2019-02-10T01:03:17.038Z,16.40
2019-02-10T01:05:46.062Z,14.25
2019-02-10T01:08:14.439Z,12.53
2019-02-10T01:10:43.010Z,12.20
2019-02-10T01:13:11.391Z,14.87
2019-02-10T01:15:40.075Z,16.00
2019-02-10T01:18:08.858Z,12.93
2019-02-10T01:20:37.919Z,19.52
2019-02-10T01:23:06.320Z,13.80
2019-02-10T01:25:35.303Z,19.27
2019-02-10T01:28:03.686Z,12.10
2019-02-10T01:30:32.057Z,13.00
2019-02-10T01:33:00.764Z,18.25
2019-02-10T01:35:29.151Z,14.28
2019-02-10T01:37:57.522Z,18.67
2019-02-10T01:40:26.587Z,16.42
2019-02-10T01:42:55.198Z,18.40
2019-02-10T01:45:24.086Z,16.65
2019-02-10T01:47:52.771Z,12.85
2019-02-10T01:50:21.456Z,18.48
2019-02-10T01:52:49.850Z,20.20
2019-02-10T01:55:18.533Z,21.07
2019-02-10T01:57:46.911Z,19.82
2019-02-10T02:00:16.898Z,19.80
2019-02-10T02:02:45.295Z,18.55
2019-02-10T02:05:13.660Z,24.32
2019-02-10T02:07:42.010Z,26.02
2019-02-10T02:10:13.810Z,14.90
2019-02-10T02:12:43.003Z,22.98
2019-02-10T02:15:15.795Z,14.05
2019-02-10T02:17:44.227Z,15.63
2019-02-10T02:20:13.255Z,14.20
2019-02-10T02:22:41.940Z,18.35
2019-02-10T02:25:11.944Z,20.48
2019-02-10T02:27:40.296Z,18.23
2019-02-10T02:30:14.867Z,13.70
2019-02-10T02:32:44.092Z,18.98
2019-02-10T02:35:12.632Z,18.00
2019-02-10T02:37:41.021Z,13.20
2019-02-10T02:40:12.220Z,15.93
2019-02-10T02:42:40.652Z,18.35
2019-02-10T02:45:30.336Z,27.10
2019-02-10T02:47:58.995Z,22.07
2019-02-10T02:50:27.364Z,17.65
2019-02-10T02:52:55.742Z,19.77
2019-02-10T02:55:24.123Z,18.57
2019-02-10T02:57:52.476Z,24.00
2019-02-10T03:00:21.627Z,14.85
2019-02-10T03:02:49.986Z,17.90
2019-02-10T03:05:18.406Z,10.65
2019-02-10T03:07:46.758Z,17.10
2019-02-10T03:10:15.127Z,19.10
2019-02-10T03:12:43.799Z,17.77
2019-02-10T03:15:12.227Z,20.05
2019-02-10T03:17:40.583Z,14.65
2019-02-10T03:20:09.647Z,19.70
2019-02-10T03:22:38.041Z,20.55
2019-02-10T03:25:07.639Z,14.65
2019-02-10T03:27:36.424Z,13.32
2019-02-10T03:30:09.339Z,14.53
2019-02-10T03:32:37.681Z,20.32
2019-02-10T03:35:07.495Z,14.25
2019-02-10T03:37:36.175Z,14.75
2019-02-10T03:40:07.361Z,16.25
2019-02-10T03:42:35.715Z,16.05
2019-02-10T03:45:05.507Z,16.90
2019-02-10T03:47:33.897Z,14.70
2019-02-10T03:50:03.032Z,17.48
2019-02-10T03:52:31.397Z,18.20
2019-02-10T03:55:00.472Z,19.67
2019-02-10T03:57:28.799Z,15.83
2019-02-10T03:59:57.155Z,19.25
2019-02-10T04:02:25.890Z,17.98
2019-02-10T04:04:54.257Z,14.18
2019-02-10T04:07:23.278Z,21.60
2019-02-10T04:09:52.165Z,11.43
2019-02-10T04:12:20.506Z,15.25
2019-02-10T04:14:49.210Z,12.78
2019-02-10T04:17:17.578Z,14.13
2019-02-10T04:19:45.945Z,12.78
2019-02-10T04:22:14.324Z,15.75
2019-02-10T04:24:43.350Z,16.73
2019-02-10T04:27:11.710Z,18.02
2019-02-10T04:29:40.095Z,21.23
2019-02-10T04:32:08.455Z,14.87
2019-02-10T04:34:37.619Z,17.67
2019-02-10T04:37:25.419Z,16.30
2019-02-10T04:39:54.368Z,16.40
2019-02-10T04:42:22.739Z,20.43
2019-02-10T04:44:51.134Z,14.15
2019-02-10T04:47:19.936Z,14.75
2019-02-10T04:49:48.879Z,19.40
2019-02-10T04:52:18.001Z,15.53
2019-02-10T04:54:46.612Z,13.05
2019-02-10T04:57:15.003Z,17.02
2019-02-10T04:59:43.360Z,13.25
2019-02-10T05:02:11.659Z,19.52
2019-02-10T05:04:40.320Z,12.88
2019-02-10T05:07:08.683Z,17.50
2019-02-10T05:09:37.042Z,13.68
2019-02-10T05:12:05.434Z,16.35
2019-02-10T05:14:34.351Z,19.73
2019-02-10T05:17:02.708Z,11.93
2019-02-10T05:19:31.099Z,14.95
2019-02-10T05:22:00.127Z,15.05
2019-02-10T05:24:29.083Z,12.03
2019-02-10T05:26:57.770Z,20.85
2019-02-10T05:29:26.131Z,20.23
2019-02-10T05:31:54.832Z,17.57
2019-02-10T05:34:23.514Z,17.25
2019-02-10T05:36:51.868Z,18.50
2019-02-10T05:39:20.183Z,13.62
2019-02-10T05:41:48.552Z,18.60
2019-02-10T05:44:17.237Z,11.12
2019-02-10T05:46:45.609Z,18.10
2019-02-10T05:49:13.996Z,23.38
2019-02-10T05:51:42.371Z,20.75
2019-02-10T05:54:10.744Z,15.38
2019-02-10T05:56:39.127Z,18.62
2019-02-10T05:59:07.497Z,19.42
2019-02-10T06:02:08.232Z,17.62
2019-02-10T06:04:44.083Z,13.83
2019-02-10T06:07:16.538Z,19.40
2019-02-10T06:09:45.015Z,16.30
2019-02-10T06:12:13.755Z,12.93
2019-02-10T06:14:42.112Z,15.83
2019-02-10T06:17:11.678Z,16.50
2019-02-10T06:19:40.761Z,14.63
2019-02-10T06:22:09.134Z,16.95
2019-02-10T06:24:37.500Z,11.18
2019-02-10T06:27:05.877Z,21.42
2019-02-10T06:29:34.523Z,13.70
2019-02-10T06:32:02.911Z,15.70
2019-02-10T06:34:31.275Z,18.80
2019-02-10T06:36:59.642Z,15.25
2019-02-10T06:39:28.061Z,10.75
2019-02-10T06:41:56.716Z,11.38
2019-02-10T06:44:25.650Z,13.70
2019-02-10T06:46:54.609Z,9.50
2019-02-10T06:49:22.969Z,18.98
2019-02-10T06:51:51.318Z,9.70
2019-02-10T06:54:19.811Z,8.63
2019-02-10T06:56:48.176Z,12.05
2019-02-10T06:59:34.340Z,9.35
2019-02-10T07:02:07.332Z,15.53
2019-02-10T07:04:36.273Z,9.80
2019-02-10T07:07:04.650Z,9.60
2019-02-10T07:09:32.962Z,12.65
2019-02-10T07:12:21.147Z,9.15
2019-02-10T07:14:49.504Z,12.28
2019-02-10T07:17:21.159Z,12.05
2019-02-10T07:20:26.322Z,7.90
2019-02-10T07:22:59.327Z,10.93
2019-02-10T07:25:41.953Z,5.28
2019-02-10T07:28:13.567Z,10.90
2019-02-10T07:34:20.617Z,11.28
2019-02-10T07:37:01.677Z,9.60
2019-02-10T07:39:45.414Z,8.95
2019-02-10T07:42:35.199Z,8.08
2019-02-10T07:45:34.686Z,8.38
2019-02-10T07:48:09.012Z,8.98
2019-02-10T07:50:55.904Z,6.65
2019-02-10T07:53:27.522Z,6.58
2019-02-10T07:56:22.095Z,7.10
2019-02-10T07:59:26.408Z,4.80
2019-02-10T08:02:06.858Z,6.78
2019-02-10T08:04:47.699Z,4.87
2019-02-10T08:07:41.454Z,7.15
2019-02-10T08:10:34.406Z,5.53
2019-02-10T08:13:11.827Z,6.20
2019-02-10T08:18:27.583Z,5.15
2019-02-10T08:21:29.003Z,7.05
2019-02-10T08:24:51.591Z,5.67
2019-02-10T08:27:43.977Z,5.87
2019-02-10T08:30:47.070Z,3.17
2019-02-10T08:33:27.547Z,3.40
2019-02-10T08:36:46.857Z,3.35
2019-02-10T08:39:24.386Z,5.50
2019-02-10T08:42:14.796Z,5.87
2019-02-10T08:45:06.983Z,5.72
2019-02-10T08:47:38.634Z,5.17
2019-02-10T08:50:26.490Z,4.33
2019-02-10T08:53:04.122Z,5.45
2019-02-10T08:55:32.726Z,6.20
2019-02-10T08:58:01.979Z,4.12
2019-02-10T09:00:30.574Z,4.58
2019-02-10T09:03:19.546Z,5.67
2019-02-10T09:05:48.786Z,7.12
2019-02-10T09:08:17.520Z,3.95
2019-02-10T09:10:45.903Z,4.50
2019-02-10T09:13:14.926Z,4.67
2019-02-10T09:15:43.273Z,3.60
2019-02-10T09:18:11.953Z,4.67
2019-02-10T09:20:40.638Z,2.60
2019-02-10T09:23:09.010Z,4.50
2019-02-10T09:25:37.362Z,2.77
2019-02-10T09:28:05.718Z,4.33
2019-02-10T09:30:34.102Z,2.62
2019-02-10T09:33:02.735Z,5.12
2019-02-10T09:35:31.093Z,2.77
2019-02-10T09:37:59.478Z,4.37
2019-02-10T09:40:27.907Z,3.85
2019-02-10T09:42:56.259Z,3.77
2019-02-10T09:45:24.647Z,4.80
2019-02-10T09:47:55.156Z,3.47
2019-02-10T09:50:23.524Z,4.75
2019-02-10T09:52:52.808Z,3.35
2019-02-10T09:55:21.829Z,2.60
2019-02-10T09:57:50.233Z,4.37
2019-02-10T10:00:18.881Z,5.35
2019-02-10T10:02:47.254Z,1.98
2019-02-10T10:05:15.607Z,3.67
2019-02-10T10:07:43.894Z,3.98
2019-02-10T10:10:13.988Z,2.62
2019-02-10T10:12:42.302Z,2.92
2019-02-10T10:15:13.096Z,3.33
2019-02-10T10:17:41.478Z,2.47
2019-02-10T10:20:12.594Z,2.60
2019-02-10T10:22:42.284Z,3.58
2019-02-10T10:25:30.112Z,3.12
2019-02-10T10:27:58.485Z,3.65
2019-02-10T10:30:26.761Z,2.02
2019-02-10T10:32:56.050Z,2.30
2019-02-10T10:35:24.436Z,2.33
2019-02-10T10:37:53.385Z,5.67
2019-02-10T10:40:21.843Z,4.72
2019-02-10T10:42:50.757Z,3.87
2019-02-10T10:45:19.131Z,4.72
2019-02-10T10:47:47.503Z,4.08
2019-02-10T10:50:15.900Z,3.17
2019-02-10T10:52:45.625Z,2.55
2019-02-10T10:55:14.054Z,4.50
2019-02-10T10:57:42.427Z,6.10
2019-02-10T11:00:14.883Z,3.65
2019-02-10T11:02:43.276Z,3.08
2019-02-10T11:05:11.646Z,2.80
2019-02-10T11:07:40.101Z,3.10
2019-02-10T11:10:14.454Z,2.92
2019-02-10T11:12:42.807Z,5.45
2019-02-10T11:15:32.879Z,2.55
2019-02-10T11:18:01.273Z,2.70
2019-02-10T11:20:30.382Z,3.92
2019-02-10T11:22:58.671Z,5.78
2019-02-10T11:25:27.046Z,4.37
2019-02-10T11:27:55.419Z,3.35
2019-02-10T11:30:23.766Z,4.28
2019-02-10T11:32:52.071Z,3.10
2019-02-10T11:35:20.488Z,4.95
2019-02-10T11:37:48.864Z,2.60
2019-02-10T11:40:17.600Z,4.53
2019-02-10T11:42:46.263Z,4.78
2019-02-10T11:45:15.162Z,3.70
2019-02-10T11:47:43.522Z,4.80
2019-02-10T11:50:13.133Z,2.25
2019-02-10T11:52:42.269Z,5.22
2019-02-10T11:55:10.943Z,4.50
2019-02-10T11:57:39.350Z,5.20
2019-02-10T12:00:14.019Z,4.62
2019-02-10T12:02:43.195Z,5.47
2019-02-10T12:05:11.903Z,5.25
2019-02-10T12:07:40.260Z,2.92
2019-02-10T12:10:10.913Z,4.95
2019-02-10T12:12:39.274Z,5.03
2019-02-10T12:15:12.639Z,6.60
2019-02-10T12:17:41.366Z,2.65
2019-02-10T12:20:11.690Z,2.87
2019-02-10T12:22:40.063Z,3.25
2019-02-10T12:25:09.943Z,4.20
2019-02-10T12:27:38.297Z,3.40
2019-02-10T12:30:10.225Z,3.95
2019-02-10T12:32:38.512Z,3.22
2019-02-10T12:35:09.435Z,3.17
2019-02-10T12:37:37.938Z,2.00
2019-02-10T12:40:08.158Z,3.67
2019-02-10T12:42:36.506Z,5.28
2019-02-10T12:45:28.805Z,3.45
2019-02-10T12:47:57.435Z,4.15
2019-02-10T12:50:25.823Z,3.27
2019-02-10T12:52:55.514Z,3.20
2019-02-10T12:55:24.206Z,5.25
2019-02-10T12:57:52.590Z,3.42
2019-02-10T13:00:20.963Z,3.22
2019-02-10T13:02:50.071Z,2.45
2019-02-10T13:05:18.533Z,3.65
2019-02-10T13:07:46.953Z,3.35
2019-02-10T13:10:18.176Z,4.95
2019-02-10T13:12:46.742Z,2.85
2019-02-10T13:15:15.103Z,2.65
2019-02-10T13:17:43.462Z,4.92
2019-02-10T13:20:32.893Z,3.62
2019-02-10T13:23:01.554Z,2.35
2019-02-10T13:25:29.928Z,2.85
2019-02-10T13:27:58.320Z,4.12
2019-02-10T13:30:26.715Z,3.60
2019-02-10T13:32:55.167Z,4.28
2019-02-10T13:35:23.544Z,3.27
2019-02-10T13:37:51.898Z,4.12
2019-02-10T13:40:41.329Z,4.80
2019-02-10T13:43:09.679Z,5.22
2019-02-10T13:45:38.044Z,3.55
2019-02-10T13:48:06.427Z,3.05
2019-02-10T13:50:34.804Z,4.80
2019-02-10T13:53:04.027Z,3.10
2019-02-10T13:55:32.684Z,4.75
2019-02-10T13:58:01.043Z,3.08
2019-02-10T14:00:29.422Z,1.80
2019-02-10T14:02:58.183Z,2.67
2019-02-10T14:05:26.811Z,2.35
2019-02-10T14:07:55.527Z,4.45
2019-02-10T14:10:25.609Z,2.47
2019-02-10T14:12:56.659Z,2.58
2019-02-10T14:15:25.035Z,1.62
2019-02-10T14:17:53.390Z,2.67
2019-02-10T14:20:21.700Z,3.50
2019-02-10T14:22:50.554Z,3.35
2019-02-10T14:25:19.978Z,2.80
2019-02-10T14:27:48.419Z,2.67
2019-02-10T14:30:19.594Z,2.98
2019-02-10T14:32:47.883Z,2.45
2019-02-10T14:35:16.265Z,4.70
2019-02-10T14:37:44.620Z,3.00
2019-02-10T14:40:13.143Z,2.90
2019-02-10T14:42:41.514Z,3.08
2019-02-10T14:45:16.274Z,4.85
2019-02-10T14:47:44.911Z,6.60
2019-02-10T14:50:15.955Z,4.22
2019-02-10T14:52:45.338Z,2.25
2019-02-10T14:55:13.694Z,2.30
2019-02-10T14:57:42.061Z,2.35
2019-02-10T15:00:31.775Z,2.42
2019-02-10T15:03:00.131Z,3.08
2019-02-10T15:05:28.736Z,2.35
2019-02-10T15:07:57.121Z,3.22
2019-02-10T15:10:25.800Z,2.47
2019-02-10T15:12:54.479Z,5.25
2019-02-10T15:15:22.858Z,4.22
2019-02-10T15:17:51.224Z,2.70
2019-02-10T15:20:19.918Z,2.00
2019-02-10T15:22:48.666Z,1.50
2019-02-10T15:25:17.068Z,1.57
2019-02-10T15:27:45.457Z,0.60
2019-02-10T15:33:06.325Z,1.60
2019-02-10T15:35:34.835Z,0.70
2019-02-10T15:38:03.965Z,1.50
2019-02-10T15:40:51.783Z,0.80
2019-02-10T15:43:20.143Z,1.60
2019-02-10T15:45:48.501Z,1.55
2019-02-10T15:48:16.926Z,1.10
2019-02-10T15:50:45.279Z,0.93
2019-02-10T15:53:13.638Z,1.25
2019-02-10T15:55:42.029Z,3.27
2019-02-10T15:58:11.649Z,1.55
2019-02-10T16:00:40.686Z,0.62
2019-02-10T16:03:09.143Z,0.62
2019-02-10T16:05:37.497Z,0.45
2019-02-10T16:08:06.248Z,0.30
2019-02-10T16:10:34.598Z,0.30
2019-02-10T16:13:03.003Z,0.30
2019-02-10T16:15:32.462Z,1.32
2019-02-10T16:18:00.821Z,0.33
2019-02-10T16:20:29.202Z,0.25
2019-02-10T16:22:57.568Z,0.50
2019-02-10T16:25:25.927Z,0.40
2019-02-10T16:27:54.936Z,0.30
2019-02-10T16:30:23.343Z,0.60
2019-02-10T16:32:51.928Z,0.75
2019-02-10T16:35:21.019Z,1.80
2019-02-10T16:37:49.407Z,0.95
2019-02-10T16:40:23.786Z,0.37
2019-02-10T16:42:52.942Z,1.22
2019-02-10T16:45:21.983Z,2.00
2019-02-10T16:47:50.355Z,0.85
2019-02-10T16:50:18.728Z,1.15
2019-02-10T16:52:48.740Z,0.53
2019-02-10T16:55:20.951Z,1.67
2019-02-10T16:57:49.313Z,0.70
2019-02-10T17:00:17.975Z,0.53
2019-02-10T17:02:46.331Z,0.55
2019-02-10T17:05:14.710Z,0.53
2019-02-10T17:07:43.086Z,1.10
2019-02-10T17:10:30.903Z,0.40
2019-02-10T17:12:59.267Z,0.62
2019-02-10T17:15:27.663Z,0.70
2019-02-10T17:17:56.458Z,0.40
2019-02-10T17:20:24.807Z,0.98
2019-02-10T17:22:53.754Z,0.82
2019-02-10T17:25:29.430Z,1.25
2019-02-10T17:27:57.797Z,2.10
2019-02-10T17:30:26.698Z,3.27
2019-02-10T17:32:55.080Z,1.10
2019-02-10T17:35:23.452Z,0.82
2019-02-10T17:37:51.807Z,1.42
2019-02-10T17:40:27.920Z,2.27
2019-02-10T17:42:57.290Z,2.00
2019-02-10T17:45:26.221Z,0.80
2019-02-10T17:47:55.175Z,0.85
2019-02-10T17:50:23.525Z,1.10
2019-02-10T17:52:51.901Z,0.50
2019-02-10T17:55:20.617Z,1.20
2019-02-10T17:57:48.982Z,0.47
2019-02-10T18:00:18.945Z,0.50
2019-02-10T18:02:54.434Z,2.05
2019-02-10T18:05:23.040Z,1.02
2019-02-10T18:07:51.492Z,0.40
2019-02-10T18:10:20.116Z,0.70
2019-02-10T18:12:49.119Z,0.70
2019-02-10T18:15:28.626Z,0.45
2019-02-10T18:18:15.300Z,0.85
2019-02-10T18:21:01.601Z,0.65
2019-02-10T18:26:44.511Z,0.88
2019-02-10T18:32:10.099Z,0.65
2019-02-10T18:34:40.934Z,0.40
2019-02-10T18:37:27.545Z,0.40
2019-02-10T18:39:57.531Z,0.33
2019-02-10T18:42:28.298Z,1.05
2019-02-10T18:45:18.071Z,0.60
2019-02-10T18:47:50.599Z,0.42
2019-02-10T18:50:29.646Z,0.40
2019-02-10T18:53:15.968Z,0.65
2019-02-10T18:55:52.502Z,1.17
2019-02-10T18:58:23.273Z,0.50
2019-02-10T19:01:02.211Z,0.45
2019-02-10T19:03:32.624Z,1.17
2019-02-10T19:08:47.222Z,0.50
2019-02-10T19:11:21.003Z,0.60
2019-02-10T19:13:59.711Z,0.57
2019-02-10T19:16:32.895Z,0.50
2019-02-10T19:19:03.611Z,1.12
2019-02-10T19:21:34.323Z,0.37
2019-02-10T19:24:04.383Z,0.30
2019-02-10T19:29:35.117Z,1.07
2019-02-10T19:32:11.147Z,0.78
2019-02-10T19:34:59.450Z,1.10
2019-02-10T19:40:15.641Z,0.62
2019-02-10T19:42:52.184Z,0.80
2019-02-10T19:45:22.963Z,0.87
2019-02-10T19:48:01.923Z,0.33
2019-02-10T19:50:40.659Z,0.57
2019-02-10T19:53:10.751Z,1.02
2019-02-10T19:55:40.832Z,1.05
2019-02-10T19:58:11.664Z,1.12
2019-02-10T20:00:44.475Z,1.75
2019-02-10T20:03:19.495Z,2.27
2019-02-10T20:08:57.874Z,1.20
2019-02-10T20:14:18.534Z,1.05
2019-02-10T20:19:57.392Z,0.80
2019-02-10T20:22:27.438Z,0.50
2019-02-10T20:24:57.454Z,0.72
2019-02-10T20:27:30.305Z,1.10
2019-02-10T20:35:42.978Z,1.45
2019-02-10T20:38:29.216Z,0.78
2019-02-10T20:41:11.905Z,1.20
2019-02-10T20:43:41.903Z,0.78
2019-02-10T20:46:12.678Z,0.47
2019-02-10T20:54:32.513Z,0.25
2019-02-10T20:57:05.480Z,1.02
2019-02-10T20:59:42.172Z,0.30
2019-02-10T21:02:27.178Z,1.87
2019-02-10T21:04:57.207Z,0.40
2019-02-10T21:07:42.435Z,0.20
2019-02-10T21:10:22.386Z,0.62
2019-02-10T21:12:52.383Z,0.53
2019-02-10T21:15:25.291Z,0.93
2019-02-10T21:18:11.343Z,0.30
2019-02-10T21:20:56.221Z,0.30
2019-02-10T21:23:26.402Z,0.50
2019-02-10T21:26:11.633Z,0.62
2019-02-10T21:28:42.214Z,0.30
2019-02-10T21:31:14.623Z,0.40
2019-02-10T21:36:22.551Z,1.30
2019-02-10T21:39:09.143Z,0.30
2019-02-10T21:41:54.024Z,0.35
2019-02-10T21:44:27.060Z,0.20
2019-02-10T21:47:05.830Z,0.55
2019-02-10T21:49:34.153Z,0.35
2019-02-10T21:52:02.517Z,0.40
2019-02-10T21:54:30.945Z,0.50
2019-02-10T21:56:59.334Z,0.30
2019-02-10T21:59:27.690Z,1.25
2019-02-10T22:01:56.057Z,0.85
2019-02-10T22:04:24.452Z,1.52
2019-02-10T22:06:52.803Z,0.60
2019-02-10T22:09:21.170Z,1.75
2019-02-10T22:11:50.366Z,1.22
2019-02-10T22:14:19.723Z,0.47
2019-02-10T22:16:48.007Z,1.42
2019-02-10T22:19:16.388Z,0.50
2019-02-10T22:21:44.747Z,0.47
2019-02-10T22:24:13.137Z,0.50
2019-02-10T22:26:41.491Z,0.50
2019-02-10T22:29:09.842Z,0.40
2019-02-10T22:31:38.986Z,0.40
2019-02-10T22:34:07.669Z,0.30
2019-02-10T22:36:36.050Z,0.50
2019-02-10T22:39:05.051Z,0.25
2019-02-10T22:41:33.409Z,0.35
2019-02-10T22:44:01.796Z,0.23
2019-02-10T22:46:30.151Z,0.20
2019-02-10T22:48:58.531Z,0.40
2019-02-10T22:51:28.779Z,0.75
2019-02-10T22:53:57.051Z,0.68
2019-02-10T22:56:25.439Z,0.30
2019-02-10T22:58:53.806Z,0.40
2019-02-10T23:01:22.170Z,0.30
2019-02-10T23:03:50.549Z,0.40
2019-02-10T23:06:18.912Z,0.47
2019-02-10T23:08:47.360Z,0.35
2019-02-10T23:11:15.739Z,0.47
2019-02-10T23:13:45.586Z,0.50
2019-02-10T23:16:14.607Z,0.42
2019-02-10T23:18:42.988Z,0.45
2019-02-10T23:21:11.357Z,0.33
2019-02-10T23:23:39.711Z,0.88
2019-02-10T23:26:08.422Z,0.40
2019-02-10T23:28:36.818Z,0.33
2019-02-10T23:31:06.803Z,0.80
2019-02-10T23:33:35.176Z,0.40
2019-02-10T23:36:05.603Z,0.30
2019-02-10T23:38:34.301Z,0.30
2019-02-10T23:41:02.666Z,0.65
2019-02-10T23:43:31.032Z,0.40
2019-02-10T23:46:00.158Z,0.37
2019-02-10T23:48:30.436Z,0.37
2019-02-10T23:50:58.825Z,0.62
2019-02-10T23:53:28.047Z,0.40
2019-02-10T23:55:56.404Z,0.55
2019-02-10T23:58:24.781Z,0.37
